sensor_id;sensor_type;location;lat;lon;timestamp;P1;durP1;ratioP1;P2;durP2;ratioP2
41446;SDS011;27185;52.040;4.490;2022-12-07T00:01:04;9.43;;;1.92;;
41446;SDS011;27185;52.040;4.490;2022-12-07T00:03:58;7.20;;;1.90;;
41446;SDS011;27185;52.040;4.490;2022-12-07T00:06:51;9.52;;;2.15;;
41446;SDS011;27185;52.040;4.490;2022-12-07T00:09:37;7.18;;;2.10;;
41446;SDS011;27185;52.040;4.490;2022-12-07T00:12:23;4.13;;;1.33;;
41446;SDS011;27185;52.040;4.490;2022-12-07T00:15:09;6.75;;;1.45;;
41446;SDS011;27185;52.040;4.490;2022-12-07T00:17:55;10.27;;;3.20;;
41446;SDS011;27185;52.040;4.490;2022-12-07T00:20:40;5.20;;;1.95;;
41446;SDS011;27185;52.040;4.490;2022-12-07T00:23:26;8.13;;;2.30;;
41446;SDS011;27185;52.040;4.490;2022-12-07T00:26:19;10.23;;;2.50;;
41446;SDS011;27185;52.040;4.490;2022-12-07T00:29:16;11.48;;;2.22;;
41446;SDS011;27185;52.040;4.490;2022-12-07T00:32:06;6.82;;;2.63;;
41446;SDS011;27185;52.040;4.490;2022-12-07T00:34:52;7.07;;;1.60;;
41446;SDS011;27185;52.040;4.490;2022-12-07T00:37:37;6.10;;;2.08;;
41446;SDS011;27185;52.040;4.490;2022-12-07T00:40:23;5.93;;;1.20;;
41446;SDS011;27185;52.040;4.490;2022-12-07T00:43:08;9.18;;;1.38;;
41446;SDS011;27185;52.040;4.490;2022-12-07T00:45:54;5.40;;;1.35;;
41446;SDS011;27185;52.040;4.490;2022-12-07T00:48:40;6.15;;;1.02;;
41446;SDS011;27185;52.040;4.490;2022-12-07T00:51:26;7.40;;;1.42;;
41446;SDS011;27185;52.040;4.490;2022-12-07T00:54:12;4.82;;;1.17;;
41446;SDS011;27185;52.040;4.490;2022-12-07T00:56:57;7.53;;;1.20;;
41446;SDS011;27185;52.040;4.490;2022-12-07T00:59:43;3.85;;;0.90;;
41446;SDS011;27185;52.040;4.490;2022-12-07T01:02:29;6.07;;;0.90;;
41446;SDS011;27185;52.040;4.490;2022-12-07T01:05:14;7.97;;;0.85;;
41446;SDS011;27185;52.040;4.490;2022-12-07T01:08:00;7.70;;;0.80;;
41446;SDS011;27185;52.040;4.490;2022-12-07T01:10:46;5.72;;;0.90;;
41446;SDS011;27185;52.040;4.490;2022-12-07T01:13:32;7.00;;;0.88;;
41446;SDS011;27185;52.040;4.490;2022-12-07T01:16:19;2.80;;;0.60;;
41446;SDS011;27185;52.040;4.490;2022-12-07T01:19:06;3.20;;;0.57;;
41446;SDS011;27185;52.040;4.490;2022-12-07T01:21:51;5.47;;;0.80;;
41446;SDS011;27185;52.040;4.490;2022-12-07T01:24:37;3.33;;;0.50;;
41446;SDS011;27185;52.040;4.490;2022-12-07T01:27:22;6.65;;;0.77;;
41446;SDS011;27185;52.040;4.490;2022-12-07T01:30:10;5.13;;;0.70;;
41446;SDS011;27185;52.040;4.490;2022-12-07T01:32:56;5.35;;;0.68;;
41446;SDS011;27185;52.040;4.490;2022-12-07T01:35:41;2.55;;;0.60;;
41446;SDS011;27185;52.040;4.490;2022-12-07T01:38:27;5.18;;;1.42;;
41446;SDS011;27185;52.040;4.490;2022-12-07T01:41:13;4.60;;;0.52;;
41446;SDS011;27185;52.040;4.490;2022-12-07T01:47:06;4.93;;;0.70;;
41446;SDS011;27185;52.040;4.490;2022-12-07T01:49:52;5.72;;;0.70;;
41446;SDS011;27185;52.040;4.490;2022-12-07T01:52:37;5.25;;;0.63;;
41446;SDS011;27185;52.040;4.490;2022-12-07T01:55:24;5.22;;;0.57;;
41446;SDS011;27185;52.040;4.490;2022-12-07T01:58:11;10.30;;;1.58;;
41446;SDS011;27185;52.040;4.490;2022-12-07T02:00:58;3.05;;;0.40;;
41446;SDS011;27185;52.040;4.490;2022-12-07T02:03:44;8.68;;;0.50;;
41446;SDS011;27185;52.040;4.490;2022-12-07T02:06:30;5.00;;;0.65;;
41446;SDS011;27185;52.040;4.490;2022-12-07T02:09:16;6.07;;;0.70;;
41446;SDS011;27185;52.040;4.490;2022-12-07T02:12:02;4.15;;;0.52;;
41446;SDS011;27185;52.040;4.490;2022-12-07T02:14:49;2.13;;;0.52;;
41446;SDS011;27185;52.040;4.490;2022-12-07T02:17:54;4.20;;;0.50;;
41446;SDS011;27185;52.040;4.490;2022-12-07T02:20:54;2.50;;;0.30;;
41446;SDS011;27185;52.040;4.490;2022-12-07T02:24:34;8.30;;;1.02;;
41446;SDS011;27185;52.040;4.490;2022-12-07T02:27:22;5.45;;;0.50;;
41446;SDS011;27185;52.040;4.490;2022-12-07T02:30:35;3.42;;;0.50;;
41446;SDS011;27185;52.040;4.490;2022-12-07T02:33:37;4.70;;;0.50;;
41446;SDS011;27185;52.040;4.490;2022-12-07T02:36:32;1.90;;;0.50;;
41446;SDS011;27185;52.040;4.490;2022-12-07T02:39:40;6.53;;;0.30;;
41446;SDS011;27185;52.040;4.490;2022-12-07T02:42:33;4.40;;;0.50;;
41446;SDS011;27185;52.040;4.490;2022-12-07T02:45:24;2.78;;;0.47;;
41446;SDS011;27185;52.040;4.490;2022-12-07T02:51:01;5.40;;;0.52;;
41446;SDS011;27185;52.040;4.490;2022-12-07T02:53:46;5.65;;;0.60;;
41446;SDS011;27185;52.040;4.490;2022-12-07T02:56:36;2.47;;;0.22;;
41446;SDS011;27185;52.040;4.490;2022-12-07T02:59:41;2.65;;;0.30;;
41446;SDS011;27185;52.040;4.490;2022-12-07T03:03:00;3.60;;;0.40;;
41446;SDS011;27185;52.040;4.490;2022-12-07T03:05:59;10.77;;;0.50;;
41446;SDS011;27185;52.040;4.490;2022-12-07T03:08:56;3.33;;;0.47;;
41446;SDS011;27185;52.040;4.490;2022-12-07T03:11:51;4.82;;;0.50;;
41446;SDS011;27185;52.040;4.490;2022-12-07T03:14:47;7.78;;;0.80;;
41446;SDS011;27185;52.040;4.490;2022-12-07T03:17:38;6.15;;;0.40;;
41446;SDS011;27185;52.040;4.490;2022-12-07T03:20:27;3.03;;;0.43;;
41446;SDS011;27185;52.040;4.490;2022-12-07T03:23:14;4.43;;;0.50;;
41446;SDS011;27185;52.040;4.490;2022-12-07T03:26:02;5.93;;;1.17;;
41446;SDS011;27185;52.040;4.490;2022-12-07T03:28:52;2.38;;;0.40;;
41446;SDS011;27185;52.040;4.490;2022-12-07T03:31:45;5.55;;;0.50;;
41446;SDS011;27185;52.040;4.490;2022-12-07T03:34:38;4.88;;;0.50;;
41446;SDS011;27185;52.040;4.490;2022-12-07T03:37:32;8.88;;;0.85;;
41446;SDS011;27185;52.040;4.490;2022-12-07T03:43:16;3.92;;;0.40;;
41446;SDS011;27185;52.040;4.490;2022-12-07T03:49:11;5.45;;;0.70;;
41446;SDS011;27185;52.040;4.490;2022-12-07T03:55:15;4.97;;;0.60;;
41446;SDS011;27185;52.040;4.490;2022-12-07T03:58:16;3.70;;;0.40;;
41446;SDS011;27185;52.040;4.490;2022-12-07T04:01:04;5.35;;;0.85;;
41446;SDS011;27185;52.040;4.490;2022-12-07T04:03:50;7.35;;;1.05;;
41446;SDS011;27185;52.040;4.490;2022-12-07T04:06:35;4.25;;;0.60;;
41446;SDS011;27185;52.040;4.490;2022-12-07T04:09:21;3.97;;;0.43;;
41446;SDS011;27185;52.040;4.490;2022-12-07T04:12:07;5.70;;;0.40;;
41446;SDS011;27185;52.040;4.490;2022-12-07T04:14:52;5.78;;;0.60;;
41446;SDS011;27185;52.040;4.490;2022-12-07T04:17:38;6.03;;;0.50;;
41446;SDS011;27185;52.040;4.490;2022-12-07T04:20:23;6.25;;;0.50;;
41446;SDS011;27185;52.040;4.490;2022-12-07T04:23:09;4.13;;;0.50;;
41446;SDS011;27185;52.040;4.490;2022-12-07T04:25:54;4.90;;;0.50;;
41446;SDS011;27185;52.040;4.490;2022-12-07T04:28:40;8.98;;;0.90;;
41446;SDS011;27185;52.040;4.490;2022-12-07T04:31:25;4.68;;;0.60;;
41446;SDS011;27185;52.040;4.490;2022-12-07T04:34:11;7.63;;;0.57;;
41446;SDS011;27185;52.040;4.490;2022-12-07T04:37:00;6.93;;;0.50;;
41446;SDS011;27185;52.040;4.490;2022-12-07T04:39:46;4.78;;;0.57;;
41446;SDS011;27185;52.040;4.490;2022-12-07T04:42:31;3.47;;;0.57;;
41446;SDS011;27185;52.040;4.490;2022-12-07T04:45:17;3.65;;;0.40;;
41446;SDS011;27185;52.040;4.490;2022-12-07T04:48:03;7.03;;;0.50;;
41446;SDS011;27185;52.040;4.490;2022-12-07T04:50:48;5.45;;;0.40;;
41446;SDS011;27185;52.040;4.490;2022-12-07T04:53:34;5.53;;;0.40;;
41446;SDS011;27185;52.040;4.490;2022-12-07T04:56:20;3.47;;;0.30;;
41446;SDS011;27185;52.040;4.490;2022-12-07T04:59:06;7.57;;;0.45;;
41446;SDS011;27185;52.040;4.490;2022-12-07T05:01:52;3.47;;;0.40;;
41446;SDS011;27185;52.040;4.490;2022-12-07T05:04:37;2.15;;;0.30;;
41446;SDS011;27185;52.040;4.490;2022-12-07T05:07:23;3.78;;;0.38;;
41446;SDS011;27185;52.040;4.490;2022-12-07T05:10:09;6.15;;;0.60;;
41446;SDS011;27185;52.040;4.490;2022-12-07T05:12:54;4.93;;;0.35;;
41446;SDS011;27185;52.040;4.490;2022-12-07T05:15:40;3.92;;;0.40;;
41446;SDS011;27185;52.040;4.490;2022-12-07T05:18:28;6.57;;;0.60;;
41446;SDS011;27185;52.040;4.490;2022-12-07T05:21:14;4.18;;;0.47;;
41446;SDS011;27185;52.040;4.490;2022-12-07T05:23:59;7.57;;;0.63;;
41446;SDS011;27185;52.040;4.490;2022-12-07T05:26:45;2.72;;;0.47;;
41446;SDS011;27185;52.040;4.490;2022-12-07T05:29:31;2.55;;;0.40;;
41446;SDS011;27185;52.040;4.490;2022-12-07T05:32:17;3.10;;;0.68;;
41446;SDS011;27185;52.040;4.490;2022-12-07T05:35:02;8.20;;;0.75;;
41446;SDS011;27185;52.040;4.490;2022-12-07T05:37:48;7.30;;;0.63;;
41446;SDS011;27185;52.040;4.490;2022-12-07T05:40:34;3.97;;;0.75;;
41446;SDS011;27185;52.040;4.490;2022-12-07T05:43:19;3.38;;;0.45;;
41446;SDS011;27185;52.040;4.490;2022-12-07T05:46:05;3.67;;;0.73;;
41446;SDS011;27185;52.040;4.490;2022-12-07T05:48:50;5.53;;;0.50;;
41446;SDS011;27185;52.040;4.490;2022-12-07T05:51:36;4.97;;;0.52;;
41446;SDS011;27185;52.040;4.490;2022-12-07T05:54:22;3.65;;;0.60;;
41446;SDS011;27185;52.040;4.490;2022-12-07T05:57:07;5.38;;;0.85;;
41446;SDS011;27185;52.040;4.490;2022-12-07T05:59:53;6.68;;;1.02;;
41446;SDS011;27185;52.040;4.490;2022-12-07T06:02:38;7.07;;;1.00;;
41446;SDS011;27185;52.040;4.490;2022-12-07T06:05:24;3.25;;;0.63;;
41446;SDS011;27185;52.040;4.490;2022-12-07T06:08:09;7.03;;;0.98;;
41446;SDS011;27185;52.040;4.490;2022-12-07T06:10:55;5.47;;;0.80;;
41446;SDS011;27185;52.040;4.490;2022-12-07T06:13:59;3.83;;;0.77;;
41446;SDS011;27185;52.040;4.490;2022-12-07T06:16:44;8.43;;;1.08;;
41446;SDS011;27185;52.040;4.490;2022-12-07T06:19:31;3.85;;;0.77;;
41446;SDS011;27185;52.040;4.490;2022-12-07T06:22:17;3.60;;;0.60;;
41446;SDS011;27185;52.040;4.490;2022-12-07T06:25:03;7.25;;;1.00;;
41446;SDS011;27185;52.040;4.490;2022-12-07T06:27:48;10.30;;;1.17;;
41446;SDS011;27185;52.040;4.490;2022-12-07T06:30:34;4.35;;;0.73;;
41446;SDS011;27185;52.040;4.490;2022-12-07T06:33:19;7.25;;;0.75;;
41446;SDS011;27185;52.040;4.490;2022-12-07T06:36:05;8.05;;;0.90;;
41446;SDS011;27185;52.040;4.490;2022-12-07T06:38:51;3.72;;;0.90;;
41446;SDS011;27185;52.040;4.490;2022-12-07T06:41:37;5.82;;;1.20;;
41446;SDS011;27185;52.040;4.490;2022-12-07T06:44:23;4.05;;;0.80;;
41446;SDS011;27185;52.040;4.490;2022-12-07T06:47:11;9.40;;;0.93;;
41446;SDS011;27185;52.040;4.490;2022-12-07T06:49:56;8.68;;;0.77;;
41446;SDS011;27185;52.040;4.490;2022-12-07T06:52:42;13.40;;;1.55;;
41446;SDS011;27185;52.040;4.490;2022-12-07T06:55:27;8.02;;;0.90;;
41446;SDS011;27185;52.040;4.490;2022-12-07T06:58:14;8.02;;;0.68;;
41446;SDS011;27185;52.040;4.490;2022-12-07T07:01:00;6.60;;;0.50;;
41446;SDS011;27185;52.040;4.490;2022-12-07T07:03:45;6.20;;;0.50;;
41446;SDS011;27185;52.040;4.490;2022-12-07T07:06:31;7.15;;;0.70;;
41446;SDS011;27185;52.040;4.490;2022-12-07T07:09:17;4.97;;;0.57;;
41446;SDS011;27185;52.040;4.490;2022-12-07T07:12:03;6.30;;;0.88;;
41446;SDS011;27185;52.040;4.490;2022-12-07T07:14:49;4.20;;;0.82;;
41446;SDS011;27185;52.040;4.490;2022-12-07T07:17:34;4.20;;;0.57;;
41446;SDS011;27185;52.040;4.490;2022-12-07T07:20:20;8.55;;;0.60;;
41446;SDS011;27185;52.040;4.490;2022-12-07T07:23:07;5.65;;;0.50;;
41446;SDS011;27185;52.040;4.490;2022-12-07T07:25:52;4.35;;;1.00;;
41446;SDS011;27185;52.040;4.490;2022-12-07T07:28:38;6.45;;;0.63;;
41446;SDS011;27185;52.040;4.490;2022-12-07T07:31:23;4.63;;;0.60;;
41446;SDS011;27185;52.040;4.490;2022-12-07T07:34:09;12.18;;;0.70;;
41446;SDS011;27185;52.040;4.490;2022-12-07T07:36:55;3.33;;;0.50;;
41446;SDS011;27185;52.040;4.490;2022-12-07T07:39:40;5.47;;;0.82;;
41446;SDS011;27185;52.040;4.490;2022-12-07T07:42:26;3.58;;;0.50;;
41446;SDS011;27185;52.040;4.490;2022-12-07T07:45:11;5.93;;;0.93;;
41446;SDS011;27185;52.040;4.490;2022-12-07T07:47:57;5.03;;;0.65;;
41446;SDS011;27185;52.040;4.490;2022-12-07T07:50:42;6.88;;;0.90;;
41446;SDS011;27185;52.040;4.490;2022-12-07T07:53:28;4.97;;;0.63;;
41446;SDS011;27185;52.040;4.490;2022-12-07T07:56:13;5.22;;;0.70;;
41446;SDS011;27185;52.040;4.490;2022-12-07T07:58:59;6.15;;;0.45;;
41446;SDS011;27185;52.040;4.490;2022-12-07T08:01:45;5.97;;;0.60;;
41446;SDS011;27185;52.040;4.490;2022-12-07T08:04:30;4.57;;;0.47;;
41446;SDS011;27185;52.040;4.490;2022-12-07T08:07:16;4.53;;;0.60;;
41446;SDS011;27185;52.040;4.490;2022-12-07T08:10:01;3.05;;;0.47;;
41446;SDS011;27185;52.040;4.490;2022-12-07T08:12:47;2.80;;;0.40;;
41446;SDS011;27185;52.040;4.490;2022-12-07T08:15:52;5.28;;;0.40;;
41446;SDS011;27185;52.040;4.490;2022-12-07T08:18:38;3.20;;;0.60;;
41446;SDS011;27185;52.040;4.490;2022-12-07T08:21:25;3.08;;;0.50;;
41446;SDS011;27185;52.040;4.490;2022-12-07T08:24:10;4.53;;;0.50;;
41446;SDS011;27185;52.040;4.490;2022-12-07T08:26:56;2.22;;;0.47;;
41446;SDS011;27185;52.040;4.490;2022-12-07T08:29:41;3.60;;;0.40;;
41446;SDS011;27185;52.040;4.490;2022-12-07T08:32:27;4.63;;;0.43;;
41446;SDS011;27185;52.040;4.490;2022-12-07T08:35:13;1.65;;;0.38;;
41446;SDS011;27185;52.040;4.490;2022-12-07T08:37:59;7.28;;;0.40;;
41446;SDS011;27185;52.040;4.490;2022-12-07T08:40:53;5.47;;;0.63;;
41446;SDS011;27185;52.040;4.490;2022-12-07T08:43:41;2.97;;;0.40;;
41446;SDS011;27185;52.040;4.490;2022-12-07T08:46:31;2.38;;;0.30;;
41446;SDS011;27185;52.040;4.490;2022-12-07T08:49:24;3.08;;;0.40;;
41446;SDS011;27185;52.040;4.490;2022-12-07T08:52:18;4.35;;;0.60;;
41446;SDS011;27185;52.040;4.490;2022-12-07T08:55:03;2.53;;;0.40;;
41446;SDS011;27185;52.040;4.490;2022-12-07T08:57:50;3.03;;;0.77;;
41446;SDS011;27185;52.040;4.490;2022-12-07T09:00:36;3.53;;;0.73;;
41446;SDS011;27185;52.040;4.490;2022-12-07T09:03:22;5.63;;;0.80;;
41446;SDS011;27185;52.040;4.490;2022-12-07T09:06:07;5.28;;;1.08;;
41446;SDS011;27185;52.040;4.490;2022-12-07T09:08:54;8.60;;;0.63;;
41446;SDS011;27185;52.040;4.490;2022-12-07T09:11:45;3.25;;;0.60;;
41446;SDS011;27185;52.040;4.490;2022-12-07T09:14:31;3.58;;;0.50;;
41446;SDS011;27185;52.040;4.490;2022-12-07T09:17:17;7.55;;;0.60;;
41446;SDS011;27185;52.040;4.490;2022-12-07T09:20:04;3.45;;;0.40;;
41446;SDS011;27185;52.040;4.490;2022-12-07T09:22:50;2.72;;;0.38;;
41446;SDS011;27185;52.040;4.490;2022-12-07T09:25:36;2.70;;;0.47;;
41446;SDS011;27185;52.040;4.490;2022-12-07T09:28:22;5.25;;;0.57;;
41446;SDS011;27185;52.040;4.490;2022-12-07T09:31:07;3.08;;;0.65;;
41446;SDS011;27185;52.040;4.490;2022-12-07T09:33:54;3.97;;;0.80;;
41446;SDS011;27185;52.040;4.490;2022-12-07T09:36:43;4.15;;;0.75;;
41446;SDS011;27185;52.040;4.490;2022-12-07T09:39:29;3.75;;;1.15;;
41446;SDS011;27185;52.040;4.490;2022-12-07T09:42:37;4.95;;;0.93;;
41446;SDS011;27185;52.040;4.490;2022-12-07T09:45:25;1.95;;;0.70;;
41446;SDS011;27185;52.040;4.490;2022-12-07T09:48:17;3.78;;;0.70;;
41446;SDS011;27185;52.040;4.490;2022-12-07T09:51:15;4.15;;;1.02;;
41446;SDS011;27185;52.040;4.490;2022-12-07T09:54:03;5.35;;;1.00;;
41446;SDS011;27185;52.040;4.490;2022-12-07T09:56:49;4.75;;;0.65;;
41446;SDS011;27185;52.040;4.490;2022-12-07T09:59:35;5.45;;;0.73;;
41446;SDS011;27185;52.040;4.490;2022-12-07T10:08:15;4.75;;;0.70;;
41446;SDS011;27185;52.040;4.490;2022-12-07T10:11:02;4.43;;;0.90;;
41446;SDS011;27185;52.040;4.490;2022-12-07T10:13:50;9.90;;;1.00;;
41446;SDS011;27185;52.040;4.490;2022-12-07T10:16:40;3.22;;;0.70;;
41446;SDS011;27185;52.040;4.490;2022-12-07T10:19:31;3.72;;;0.70;;
41446;SDS011;27185;52.040;4.490;2022-12-07T10:22:20;3.65;;;0.50;;
41446;SDS011;27185;52.040;4.490;2022-12-07T10:25:17;3.28;;;0.50;;
41446;SDS011;27185;52.040;4.490;2022-12-07T10:30:55;3.97;;;0.50;;
41446;SDS011;27185;52.040;4.490;2022-12-07T10:33:54;5.22;;;0.55;;
41446;SDS011;27185;52.040;4.490;2022-12-07T10:36:42;4.72;;;0.80;;
41446;SDS011;27185;52.040;4.490;2022-12-07T10:39:28;5.45;;;0.68;;
41446;SDS011;27185;52.040;4.490;2022-12-07T10:42:23;5.28;;;0.68;;
41446;SDS011;27185;52.040;4.490;2022-12-07T10:45:18;5.03;;;0.47;;
41446;SDS011;27185;52.040;4.490;2022-12-07T11:14:41;2.72;;;0.40;;
41446;SDS011;27185;52.040;4.490;2022-12-07T11:20:58;4.57;;;0.30;;
41446;SDS011;27185;52.040;4.490;2022-12-07T11:24:04;5.93;;;0.60;;
41446;SDS011;27185;52.040;4.490;2022-12-07T11:33:13;3.28;;;0.47;;
41446;SDS011;27185;52.040;4.490;2022-12-07T11:36:08;4.20;;;0.40;;
41446;SDS011;27185;52.040;4.490;2022-12-07T11:42:06;1.83;;;0.20;;
41446;SDS011;27185;52.040;4.490;2022-12-07T11:45:19;4.97;;;0.47;;
41446;SDS011;27185;52.040;4.490;2022-12-07T11:48:22;5.90;;;0.50;;
41446;SDS011;27185;52.040;4.490;2022-12-07T11:51:15;2.47;;;0.40;;
41446;SDS011;27185;52.040;4.490;2022-12-07T11:54:05;3.17;;;0.40;;
41446;SDS011;27185;52.040;4.490;2022-12-07T11:57:02;3.20;;;0.50;;
41446;SDS011;27185;52.040;4.490;2022-12-07T11:59:55;5.22;;;0.68;;
41446;SDS011;27185;52.040;4.490;2022-12-07T12:05:47;8.50;;;0.65;;
41446;SDS011;27185;52.040;4.490;2022-12-07T12:08:38;3.22;;;0.50;;
41446;SDS011;27185;52.040;4.490;2022-12-07T12:11:39;5.65;;;1.00;;
41446;SDS011;27185;52.040;4.490;2022-12-07T12:15:03;4.00;;;0.98;;
41446;SDS011;27185;52.040;4.490;2022-12-07T12:24:16;4.43;;;0.20;;
41446;SDS011;27185;52.040;4.490;2022-12-07T12:27:04;1.10;;;0.30;;
41446;SDS011;27185;52.040;4.490;2022-12-07T12:29:53;3.47;;;0.38;;
41446;SDS011;27185;52.040;4.490;2022-12-07T12:32:44;3.35;;;0.30;;
41446;SDS011;27185;52.040;4.490;2022-12-07T12:35:35;1.80;;;0.25;;
41446;SDS011;27185;52.040;4.490;2022-12-07T12:45:03;1.98;;;0.30;;
41446;SDS011;27185;52.040;4.490;2022-12-07T12:48:27;5.10;;;0.35;;
41446;SDS011;27185;52.040;4.490;2022-12-07T12:51:40;1.50;;;0.20;;
41446;SDS011;27185;52.040;4.490;2022-12-07T12:55:11;3.35;;;0.50;;
41446;SDS011;27185;52.040;4.490;2022-12-07T13:04:18;3.28;;;0.40;;
41446;SDS011;27185;52.040;4.490;2022-12-07T13:07:11;4.65;;;0.30;;
41446;SDS011;27185;52.040;4.490;2022-12-07T13:18:52;2.20;;;0.20;;
41446;SDS011;27185;52.040;4.490;2022-12-07T13:24:23;3.65;;;0.30;;
41446;SDS011;27185;52.040;4.490;2022-12-07T13:27:09;3.08;;;0.60;;
41446;SDS011;27185;52.040;4.490;2022-12-07T13:29:57;1.50;;;0.40;;
41446;SDS011;27185;52.040;4.490;2022-12-07T13:32:43;3.97;;;0.30;;
41446;SDS011;27185;52.040;4.490;2022-12-07T13:35:40;1.83;;;0.40;;
41446;SDS011;27185;52.040;4.490;2022-12-07T13:38:35;2.35;;;0.30;;
41446;SDS011;27185;52.040;4.490;2022-12-07T13:41:23;2.53;;;0.40;;
41446;SDS011;27185;52.040;4.490;2022-12-07T13:44:13;5.15;;;0.65;;
41446;SDS011;27185;52.040;4.490;2022-12-07T13:47:05;2.63;;;0.60;;
41446;SDS011;27185;52.040;4.490;2022-12-07T13:49:53;3.63;;;0.50;;
41446;SDS011;27185;52.040;4.490;2022-12-07T13:52:43;6.18;;;0.40;;
41446;SDS011;27185;52.040;4.490;2022-12-07T13:55:30;4.65;;;0.60;;
41446;SDS011;27185;52.040;4.490;2022-12-07T13:58:16;1.77;;;0.30;;
41446;SDS011;27185;52.040;4.490;2022-12-07T14:01:01;3.80;;;0.30;;
41446;SDS011;27185;52.040;4.490;2022-12-07T14:03:47;3.28;;;0.40;;
41446;SDS011;27185;52.040;4.490;2022-12-07T14:06:33;3.63;;;0.38;;
41446;SDS011;27185;52.040;4.490;2022-12-07T14:09:22;3.92;;;0.40;;
41446;SDS011;27185;52.040;4.490;2022-12-07T14:12:11;3.95;;;0.50;;
41446;SDS011;27185;52.040;4.490;2022-12-07T14:14:58;2.28;;;0.30;;
41446;SDS011;27185;52.040;4.490;2022-12-07T14:20:37;2.22;;;0.20;;
41446;SDS011;27185;52.040;4.490;2022-12-07T14:23:25;2.22;;;0.20;;
41446;SDS011;27185;52.040;4.490;2022-12-07T14:26:18;6.07;;;1.20;;
41446;SDS011;27185;52.040;4.490;2022-12-07T14:29:18;3.70;;;0.40;;
41446;SDS011;27185;52.040;4.490;2022-12-07T14:32:28;1.50;;;0.30;;
41446;SDS011;27185;52.040;4.490;2022-12-07T14:35:15;3.13;;;0.40;;
41446;SDS011;27185;52.040;4.490;2022-12-07T14:38:01;1.42;;;0.28;;
41446;SDS011;27185;52.040;4.490;2022-12-07T14:40:47;1.52;;;0.30;;
41446;SDS011;27185;52.040;4.490;2022-12-07T14:43:33;3.10;;;0.50;;
41446;SDS011;27185;52.040;4.490;2022-12-07T14:46:19;2.90;;;0.38;;
41446;SDS011;27185;52.040;4.490;2022-12-07T14:49:04;2.03;;;0.30;;
41446;SDS011;27185;52.040;4.490;2022-12-07T14:51:50;1.92;;;0.30;;
41446;SDS011;27185;52.040;4.490;2022-12-07T14:54:36;5.55;;;0.57;;
41446;SDS011;27185;52.040;4.490;2022-12-07T14:57:21;3.10;;;0.50;;
41446;SDS011;27185;52.040;4.490;2022-12-07T15:00:08;4.25;;;0.93;;
41446;SDS011;27185;52.040;4.490;2022-12-07T15:02:57;3.92;;;0.70;;
41446;SDS011;27185;52.040;4.490;2022-12-07T15:05:43;8.43;;;0.80;;
41446;SDS011;27185;52.040;4.490;2022-12-07T15:08:29;3.28;;;0.80;;
41446;SDS011;27185;52.040;4.490;2022-12-07T15:11:15;8.35;;;0.70;;
41446;SDS011;27185;52.040;4.490;2022-12-07T15:14:02;5.32;;;0.40;;
41446;SDS011;27185;52.040;4.490;2022-12-07T15:16:53;3.85;;;0.63;;
41446;SDS011;27185;52.040;4.490;2022-12-07T15:19:39;2.78;;;0.50;;
41446;SDS011;27185;52.040;4.490;2022-12-07T15:22:24;3.72;;;0.47;;
41446;SDS011;27185;52.040;4.490;2022-12-07T15:25:13;10.02;;;0.57;;
41446;SDS011;27185;52.040;4.490;2022-12-07T15:27:59;4.20;;;0.47;;
41446;SDS011;27185;52.040;4.490;2022-12-07T15:30:44;6.35;;;0.60;;
41446;SDS011;27185;52.040;4.490;2022-12-07T15:33:30;4.35;;;0.57;;
41446;SDS011;27185;52.040;4.490;2022-12-07T15:36:20;3.97;;;0.70;;
41446;SDS011;27185;52.040;4.490;2022-12-07T15:39:08;3.53;;;0.65;;
41446;SDS011;27185;52.040;4.490;2022-12-07T15:41:54;8.45;;;0.85;;
41446;SDS011;27185;52.040;4.490;2022-12-07T15:44:39;4.90;;;0.98;;
41446;SDS011;27185;52.040;4.490;2022-12-07T15:47:54;4.60;;;0.70;;
41446;SDS011;27185;52.040;4.490;2022-12-07T15:50:40;7.20;;;1.13;;
41446;SDS011;27185;52.040;4.490;2022-12-07T15:53:25;4.30;;;0.60;;
41446;SDS011;27185;52.040;4.490;2022-12-07T15:56:11;3.67;;;0.40;;
41446;SDS011;27185;52.040;4.490;2022-12-07T15:58:57;7.80;;;0.65;;
41446;SDS011;27185;52.040;4.490;2022-12-07T16:01:42;2.42;;;0.43;;
41446;SDS011;27185;52.040;4.490;2022-12-07T16:04:28;4.90;;;0.40;;
41446;SDS011;27185;52.040;4.490;2022-12-07T16:07:14;3.22;;;0.50;;
41446;SDS011;27185;52.040;4.490;2022-12-07T16:10:00;5.32;;;0.90;;
41446;SDS011;27185;52.040;4.490;2022-12-07T16:12:46;4.18;;;0.88;;
41446;SDS011;27185;52.040;4.490;2022-12-07T16:15:31;3.47;;;0.50;;
41446;SDS011;27185;52.040;4.490;2022-12-07T16:18:17;2.22;;;0.40;;
41446;SDS011;27185;52.040;4.490;2022-12-07T16:21:03;4.25;;;1.25;;
41446;SDS011;27185;52.040;4.490;2022-12-07T16:23:49;2.63;;;0.65;;
41446;SDS011;27185;52.040;4.490;2022-12-07T16:26:34;6.70;;;1.17;;
41446;SDS011;27185;52.040;4.490;2022-12-07T16:29:21;6.70;;;0.90;;
41446;SDS011;27185;52.040;4.490;2022-12-07T16:32:07;6.25;;;0.60;;
41446;SDS011;27185;52.040;4.490;2022-12-07T16:34:53;5.03;;;0.60;;
41446;SDS011;27185;52.040;4.490;2022-12-07T16:37:38;4.82;;;1.65;;
41446;SDS011;27185;52.040;4.490;2022-12-07T16:40:26;6.05;;;2.53;;
41446;SDS011;27185;52.040;4.490;2022-12-07T16:43:12;7.53;;;2.40;;
41446;SDS011;27185;52.040;4.490;2022-12-07T16:45:58;6.47;;;1.30;;
41446;SDS011;27185;52.040;4.490;2022-12-07T16:48:44;4.82;;;0.93;;
41446;SDS011;27185;52.040;4.490;2022-12-07T16:51:30;5.78;;;0.90;;
41446;SDS011;27185;52.040;4.490;2022-12-07T16:54:16;3.08;;;0.60;;
41446;SDS011;27185;52.040;4.490;2022-12-07T16:57:02;4.75;;;0.75;;
41446;SDS011;27185;52.040;4.490;2022-12-07T16:59:47;4.18;;;0.80;;
41446;SDS011;27185;52.040;4.490;2022-12-07T17:02:33;4.45;;;0.80;;
41446;SDS011;27185;52.040;4.490;2022-12-07T17:05:18;4.53;;;1.63;;
41446;SDS011;27185;52.040;4.490;2022-12-07T17:08:04;7.20;;;1.90;;
41446;SDS011;27185;52.040;4.490;2022-12-07T17:10:50;9.10;;;2.67;;
41446;SDS011;27185;52.040;4.490;2022-12-07T17:13:35;9.60;;;3.92;;
41446;SDS011;27185;52.040;4.490;2022-12-07T17:16:39;6.85;;;1.70;;
41446;SDS011;27185;52.040;4.490;2022-12-07T17:19:25;6.38;;;2.20;;
41446;SDS011;27185;52.040;4.490;2022-12-07T17:22:10;5.00;;;1.60;;
41446;SDS011;27185;52.040;4.490;2022-12-07T17:24:57;6.32;;;1.35;;
41446;SDS011;27185;52.040;4.490;2022-12-07T17:27:43;5.45;;;1.40;;
41446;SDS011;27185;52.040;4.490;2022-12-07T17:30:29;7.53;;;1.40;;
41446;SDS011;27185;52.040;4.490;2022-12-07T17:33:16;7.97;;;2.40;;
41446;SDS011;27185;52.040;4.490;2022-12-07T17:36:08;13.13;;;2.60;;
41446;SDS011;27185;52.040;4.490;2022-12-07T17:38:56;7.93;;;1.80;;
41446;SDS011;27185;52.040;4.490;2022-12-07T17:41:42;5.63;;;1.40;;
41446;SDS011;27185;52.040;4.490;2022-12-07T17:44:46;10.68;;;2.20;;
41446;SDS011;27185;52.040;4.490;2022-12-07T17:47:32;7.03;;;1.30;;
41446;SDS011;27185;52.040;4.490;2022-12-07T17:50:17;5.55;;;0.90;;
41446;SDS011;27185;52.040;4.490;2022-12-07T17:53:23;1.75;;;0.50;;
41446;SDS011;27185;52.040;4.490;2022-12-07T17:56:09;3.50;;;1.10;;
41446;SDS011;27185;52.040;4.490;2022-12-07T17:58:54;5.35;;;2.00;;
41446;SDS011;27185;52.040;4.490;2022-12-07T18:01:40;3.83;;;0.88;;
41446;SDS011;27185;52.040;4.490;2022-12-07T18:04:26;3.83;;;0.77;;
41446;SDS011;27185;52.040;4.490;2022-12-07T18:07:11;6.25;;;1.40;;
41446;SDS011;27185;52.040;4.490;2022-12-07T18:09:58;6.43;;;1.08;;
41446;SDS011;27185;52.040;4.490;2022-12-07T18:12:43;2.17;;;0.50;;
41446;SDS011;27185;52.040;4.490;2022-12-07T18:15:29;2.90;;;1.10;;
41446;SDS011;27185;52.040;4.490;2022-12-07T18:18:14;4.47;;;0.85;;
41446;SDS011;27185;52.040;4.490;2022-12-07T18:21:06;3.25;;;0.90;;
41446;SDS011;27185;52.040;4.490;2022-12-07T18:23:59;5.05;;;2.05;;
41446;SDS011;27185;52.040;4.490;2022-12-07T18:26:46;5.43;;;0.88;;
41446;SDS011;27185;52.040;4.490;2022-12-07T18:29:32;3.75;;;0.50;;
41446;SDS011;27185;52.040;4.490;2022-12-07T18:32:17;1.83;;;0.50;;
41446;SDS011;27185;52.040;4.490;2022-12-07T18:35:03;3.70;;;0.32;;
41446;SDS011;27185;52.040;4.490;2022-12-07T18:37:49;3.50;;;0.50;;